createdAt,value
2022-11-24T06:16:13.023Z,97743.26
2022-11-24T06:19:07.899Z,97755.16
2022-11-24T06:21:55.894Z,97763.70
2022-11-24T06:24:30.127Z,97764.96
2022-11-24T06:27:17.952Z,97768.88
2022-11-24T06:29:53.104Z,97769.21
2022-11-24T06:32:43.739Z,97770.66
2022-11-24T06:35:29.947Z,97768.44
2022-11-24T06:38:24.949Z,97766.19
2022-11-24T06:41:14.948Z,97769.94
2022-11-24T06:43:50.360Z,97772.86
2022-11-24T06:46:38.936Z,97777.29
2022-11-24T06:49:14.291Z,97784.15
2022-11-24T06:52:01.930Z,97784.59
2022-11-24T06:54:37.297Z,97786.13
2022-11-24T06:57:33.500Z,97787.37
2022-11-24T07:00:15.067Z,97784.92
2022-11-24T07:03:03.975Z,97789.40
2022-11-24T07:05:39.501Z,97790.27
2022-11-24T07:08:26.927Z,97795.04
2022-11-24T07:11:23.951Z,97802.75
2022-11-24T07:14:04.928Z,97802.86
2022-11-24T07:16:46.097Z,97807.45
2022-11-24T07:19:26.891Z,97811.71
2022-11-24T07:22:08.191Z,97812.05
2022-11-24T07:24:48.935Z,97812.84
2022-11-24T07:27:36.876Z,97813.98
2022-11-24T07:30:11.621Z,97813.65
2022-11-24T07:33:00.013Z,97814.57
2022-11-24T07:35:34.369Z,97816.70
2022-11-24T07:38:21.911Z,97819.04
2022-11-24T07:41:03.362Z,97819.77
2022-11-24T07:43:51.953Z,97821.34
2022-11-24T07:46:30.395Z,97821.63
2022-11-24T07:49:18.936Z,97823.39
2022-11-24T07:51:53.359Z,97824.61
2022-11-24T07:54:40.937Z,97823.60
2022-11-24T07:57:21.926Z,97824.52
2022-11-24T08:00:03.212Z,97824.38
2022-11-24T08:02:44.961Z,97825.66
2022-11-24T08:05:27.066Z,97828.20
2022-11-24T08:08:07.943Z,97828.19
2022-11-24T08:10:55.876Z,97830.04
2022-11-24T08:13:52.519Z,97834.48
2022-11-24T08:16:39.950Z,97837.15
2022-11-24T08:19:22.050Z,97837.79
2022-11-24T08:22:16.936Z,97837.35
2022-11-24T08:25:12.037Z,97837.77
2022-11-24T08:28:00.228Z,97840.74
2022-11-24T08:30:43.360Z,97840.49
2022-11-24T08:33:30.933Z,97836.81
2022-11-24T08:36:20.931Z,97839.89
2022-11-24T08:39:08.900Z,97842.94
2022-11-24T08:41:49.921Z,97844.15
2022-11-24T08:44:44.909Z,97846.10
2022-11-24T08:47:32.936Z,97845.61
2022-11-24T08:50:08.104Z,97848.78
2022-11-24T08:52:55.939Z,97854.21
2022-11-24T08:55:37.935Z,97855.05
2022-11-24T08:58:19.396Z,97857.50
2022-11-24T09:01:06.989Z,97853.35
2022-11-24T09:03:49.761Z,97850.86
2022-11-24T09:06:40.907Z,97854.21
2022-11-24T09:09:15.415Z,97852.67
2022-11-24T09:12:02.900Z,97848.31
2022-11-24T09:14:50.911Z,97847.53
2022-11-24T09:17:39.899Z,97846.81
2022-11-24T09:20:21.199Z,97848.58
2022-11-24T09:23:08.912Z,97847.88
2022-11-24T09:25:44.079Z,97847.30
2022-11-24T09:28:31.906Z,97848.65
2022-11-24T09:31:13.096Z,97848.57
2022-11-24T09:34:01.909Z,97851.08
2022-11-24T09:36:37.224Z,97847.48
2022-11-24T09:39:25.015Z,97847.77
2022-11-24T09:42:12.133Z,97849.86
2022-11-24T09:46:03.328Z,97849.84
2022-11-24T09:48:52.905Z,97851.95
2022-11-24T09:51:29.685Z,97852.23
2022-11-24T09:54:30.953Z,97854.87
2022-11-24T09:57:07.315Z,97853.72
2022-11-24T09:59:55.915Z,97852.89
2022-11-24T10:02:30.386Z,97852.09
2022-11-24T10:05:18.939Z,97851.95
2022-11-24T10:08:08.906Z,97856.21
2022-11-24T10:11:03.047Z,97856.14
2022-11-24T10:13:43.927Z,97856.83
2022-11-24T10:17:00.906Z,97860.92
2022-11-24T10:20:03.928Z,97859.68
2022-11-24T10:23:10.966Z,97860.95
2022-11-24T10:26:10.902Z,97861.01
2022-11-24T10:29:07.889Z,97865.07
2022-11-24T10:31:59.905Z,97865.74
2022-11-24T10:34:42.158Z,97866.85
2022-11-24T10:37:40.911Z,97867.96
2022-11-24T10:40:55.463Z,97871.94
2022-11-24T10:43:33.882Z,97872.21
2022-11-24T10:46:39.145Z,97869.27
2022-11-24T10:49:40.019Z,97870.80
2022-11-24T10:52:22.041Z,97869.23
2022-11-24T10:55:11.887Z,97874.09
2022-11-24T10:57:47.108Z,97873.55
2022-11-24T11:00:39.892Z,97874.00
2022-11-24T11:03:32.913Z,97875.55
2022-11-24T11:06:31.875Z,97872.63
2022-11-24T11:09:13.099Z,97875.20
2022-11-24T11:11:59.143Z,97873.67
2022-11-24T11:15:04.960Z,97873.23
2022-11-24T11:17:52.916Z,97873.91
2022-11-24T11:20:41.060Z,97873.92
2022-11-24T11:23:37.902Z,97876.92
2022-11-24T11:26:38.048Z,97877.64
2022-11-24T11:35:39.904Z,97885.10
2022-11-24T11:38:21.036Z,97880.39
2022-11-24T11:41:01.891Z,97880.11
2022-11-24T11:43:46.203Z,97883.43
2022-11-24T11:46:27.958Z,97885.15
2022-11-24T11:49:08.862Z,97889.47
2022-11-24T11:52:12.720Z,97893.91
2022-11-24T11:55:08.608Z,97894.10
2022-11-24T11:58:15.221Z,97891.72
2022-11-24T12:01:32.232Z,97894.43
2022-11-24T12:04:44.910Z,97894.67
2022-11-24T12:07:43.837Z,97898.05
2022-11-24T12:10:38.881Z,97893.46
2022-11-24T12:13:28.593Z,97892.33
2022-11-24T12:16:45.907Z,97893.85
2022-11-24T12:19:29.248Z,97894.55
2022-11-24T12:22:44.881Z,97890.34
2022-11-24T12:25:26.843Z,97895.95
2022-11-24T12:28:47.889Z,97897.77
2022-11-24T12:31:36.081Z,97896.71
2022-11-24T12:34:35.905Z,97896.50
2022-11-24T12:37:39.877Z,97895.98
2022-11-24T12:40:34.861Z,97891.74
2022-11-24T12:43:33.871Z,97892.20
2022-11-24T12:46:32.271Z,97890.40
2022-11-24T12:49:46.867Z,97895.70
2022-11-24T12:52:32.043Z,97893.52
2022-11-24T12:55:20.884Z,97892.72
2022-11-24T12:58:26.873Z,97899.42
2022-11-24T13:01:16.641Z,97904.08
2022-11-24T13:04:13.879Z,97905.53
2022-11-24T13:07:01.834Z,97910.26
2022-11-24T13:09:44.023Z,97914.46
2022-11-24T13:12:24.871Z,97916.63
2022-11-24T13:15:45.793Z,97915.60
2022-11-24T13:19:02.969Z,97920.26
2022-11-24T13:21:53.024Z,97918.82
2022-11-24T13:24:39.103Z,97921.45
2022-11-24T13:27:20.037Z,97922.77
2022-11-24T13:30:00.876Z,97919.88
2022-11-24T13:32:48.969Z,97921.86
2022-11-24T13:35:23.490Z,97927.60
2022-11-24T13:38:11.937Z,97928.03
2022-11-24T13:41:12.958Z,97934.43
2022-11-24T13:44:28.978Z,97938.27
2022-11-24T13:47:11.969Z,97941.48
2022-11-24T13:49:59.862Z,97946.98
2022-11-24T13:52:40.623Z,97953.61
2022-11-24T13:55:34.881Z,97954.56
2022-11-24T13:58:09.249Z,97959.05
2022-11-24T14:01:17.164Z,97957.05
2022-11-24T14:04:32.296Z,97953.73
2022-11-24T14:07:20.186Z,97960.84
2022-11-24T14:10:01.874Z,97966.15
2022-11-24T14:12:44.039Z,97968.70
2022-11-24T14:15:31.862Z,97974.38
2022-11-24T14:18:29.444Z,97980.59
2022-11-24T17:10:14.375Z,98150.86
2022-11-24T17:13:06.856Z,98160.73
2022-11-24T17:15:48.381Z,98168.38
2022-11-24T17:18:38.764Z,98169.13
2022-11-24T17:21:21.848Z,98174.31
2022-11-24T17:24:24.967Z,98171.81
2022-11-24T17:27:16.580Z,98174.47
2022-11-24T17:29:53.019Z,98177.59
2022-11-24T17:32:41.754Z,98182.88
2022-11-24T17:35:24.853Z,98185.41
2022-11-24T17:38:22.753Z,98188.15
2022-11-24T17:41:16.494Z,98190.34
2022-11-24T17:43:59.336Z,98192.66
2022-11-24T17:46:54.047Z,98194.36
2022-11-24T17:49:31.991Z,98198.98
2022-11-24T17:52:22.023Z,98201.44
2022-11-24T17:54:57.835Z,98205.17
2022-11-24T17:57:46.759Z,98211.65
2022-11-24T18:00:23.302Z,98211.73
2022-11-24T18:03:12.897Z,98213.56
2022-11-24T18:05:54.938Z,98213.21
2022-11-24T18:08:47.757Z,98211.91
2022-11-24T18:11:39.857Z,98216.41
2022-11-24T18:14:36.208Z,98221.83
2022-11-24T18:17:28.981Z,98222.98
2022-11-24T18:20:18.435Z,98228.67
2022-11-24T18:23:09.821Z,98236.05
2022-11-24T18:25:45.006Z,98235.59
2022-11-24T18:28:34.765Z,98236.02
2022-11-24T18:31:13.336Z,98235.27
2022-11-24T18:34:00.734Z,98238.67
2022-11-24T18:36:35.949Z,98238.55
